sensor_id;sensor_type;location;lat;lon;timestamp;P1;durP1;ratioP1;P2;durP2;ratioP2
9888;SDS011;4983;42.112;24.738;2023-02-08T00:00:07;15.50;;;10.13;;
9888;SDS011;4983;42.112;24.738;2023-02-08T00:02:35;16.07;;;11.13;;
9888;SDS011;4983;42.112;24.738;2023-02-08T00:05:03;16.03;;;11.70;;
9888;SDS011;4983;42.112;24.738;2023-02-08T00:07:29;16.33;;;11.97;;
9888;SDS011;4983;42.112;24.738;2023-02-08T00:09:56;16.87;;;11.83;;
9888;SDS011;4983;42.112;24.738;2023-02-08T00:12:23;18.77;;;12.60;;
9888;SDS011;4983;42.112;24.738;2023-02-08T00:14:50;17.00;;;12.00;;
9888;SDS011;4983;42.112;24.738;2023-02-08T00:17:16;16.03;;;11.37;;
9888;SDS011;4983;42.112;24.738;2023-02-08T00:19:43;18.47;;;12.17;;
9888;SDS011;4983;42.112;24.738;2023-02-08T00:22:11;17.73;;;12.67;;
9888;SDS011;4983;42.112;24.738;2023-02-08T00:24:38;18.90;;;12.80;;
9888;SDS011;4983;42.112;24.738;2023-02-08T00:27:04;19.60;;;12.93;;
9888;SDS011;4983;42.112;24.738;2023-02-08T00:29:31;16.33;;;12.40;;
9888;SDS011;4983;42.112;24.738;2023-02-08T00:31:58;19.47;;;11.90;;
9888;SDS011;4983;42.112;24.738;2023-02-08T00:34:25;17.80;;;12.37;;
9888;SDS011;4983;42.112;24.738;2023-02-08T00:36:53;15.00;;;11.20;;
9888;SDS011;4983;42.112;24.738;2023-02-08T00:39:22;15.30;;;10.50;;
9888;SDS011;4983;42.112;24.738;2023-02-08T00:41:48;17.17;;;11.57;;
9888;SDS011;4983;42.112;24.738;2023-02-08T00:44:16;17.37;;;11.43;;
9888;SDS011;4983;42.112;24.738;2023-02-08T00:46:43;17.83;;;12.80;;
9888;SDS011;4983;42.112;24.738;2023-02-08T00:49:09;18.07;;;12.90;;
9888;SDS011;4983;42.112;24.738;2023-02-08T00:51:36;17.90;;;12.80;;
9888;SDS011;4983;42.112;24.738;2023-02-08T00:54:03;17.37;;;12.40;;
9888;SDS011;4983;42.112;24.738;2023-02-08T00:56:31;18.10;;;12.27;;
9888;SDS011;4983;42.112;24.738;2023-02-08T00:58:58;17.40;;;12.60;;
9888;SDS011;4983;42.112;24.738;2023-02-08T01:01:24;16.93;;;12.57;;
9888;SDS011;4983;42.112;24.738;2023-02-08T01:03:51;15.33;;;11.67;;
9888;SDS011;4983;42.112;24.738;2023-02-08T01:06:18;18.23;;;12.73;;
9888;SDS011;4983;42.112;24.738;2023-02-08T01:08:44;17.13;;;11.73;;
9888;SDS011;4983;42.112;24.738;2023-02-08T01:11:12;16.60;;;11.23;;
9888;SDS011;4983;42.112;24.738;2023-02-08T01:13:40;16.43;;;12.73;;
9888;SDS011;4983;42.112;24.738;2023-02-08T01:16:08;15.10;;;11.20;;
9888;SDS011;4983;42.112;24.738;2023-02-08T01:18:35;15.77;;;10.93;;
9888;SDS011;4983;42.112;24.738;2023-02-08T01:21:05;17.53;;;12.40;;
9888;SDS011;4983;42.112;24.738;2023-02-08T01:23:32;16.47;;;12.43;;
9888;SDS011;4983;42.112;24.738;2023-02-08T01:25:58;15.90;;;11.40;;
9888;SDS011;4983;42.112;24.738;2023-02-08T01:28:25;19.30;;;13.13;;
9888;SDS011;4983;42.112;24.738;2023-02-08T01:30:53;22.70;;;12.97;;
9888;SDS011;4983;42.112;24.738;2023-02-08T01:33:20;20.93;;;12.20;;
9888;SDS011;4983;42.112;24.738;2023-02-08T01:35:48;17.13;;;12.10;;
9888;SDS011;4983;42.112;24.738;2023-02-08T01:38:15;17.60;;;11.60;;
9888;SDS011;4983;42.112;24.738;2023-02-08T01:40:42;19.57;;;13.37;;
9888;SDS011;4983;42.112;24.738;2023-02-08T01:43:10;18.73;;;13.03;;
9888;SDS011;4983;42.112;24.738;2023-02-08T01:45:41;20.03;;;13.27;;
9888;SDS011;4983;42.112;24.738;2023-02-08T01:48:11;21.93;;;13.10;;
9888;SDS011;4983;42.112;24.738;2023-02-08T01:50:40;17.83;;;13.50;;
9888;SDS011;4983;42.112;24.738;2023-02-08T01:53:08;18.10;;;13.17;;
9888;SDS011;4983;42.112;24.738;2023-02-08T01:55:37;18.90;;;12.97;;
9888;SDS011;4983;42.112;24.738;2023-02-08T01:58:06;19.07;;;13.23;;
9888;SDS011;4983;42.112;24.738;2023-02-08T02:00:35;19.90;;;13.63;;
9888;SDS011;4983;42.112;24.738;2023-02-08T02:03:01;18.57;;;13.03;;
9888;SDS011;4983;42.112;24.738;2023-02-08T02:05:32;19.37;;;13.67;;
9888;SDS011;4983;42.112;24.738;2023-02-08T02:07:59;19.27;;;13.17;;
9888;SDS011;4983;42.112;24.738;2023-02-08T02:10:26;18.67;;;13.20;;
9888;SDS011;4983;42.112;24.738;2023-02-08T02:12:53;18.50;;;13.33;;
9888;SDS011;4983;42.112;24.738;2023-02-08T02:15:20;18.13;;;12.90;;
9888;SDS011;4983;42.112;24.738;2023-02-08T02:17:47;17.27;;;12.33;;
9888;SDS011;4983;42.112;24.738;2023-02-08T02:20:17;20.23;;;12.90;;
9888;SDS011;4983;42.112;24.738;2023-02-08T02:25:43;17.97;;;12.83;;
9888;SDS011;4983;42.112;24.738;2023-02-08T02:33:45;19.47;;;13.43;;
9888;SDS011;4983;42.112;24.738;2023-02-08T02:36:17;18.60;;;13.03;;
9888;SDS011;4983;42.112;24.738;2023-02-08T02:38:48;16.40;;;12.37;;
9888;SDS011;4983;42.112;24.738;2023-02-08T02:41:22;18.13;;;13.50;;
9888;SDS011;4983;42.112;24.738;2023-02-08T02:44:06;18.10;;;12.70;;
9888;SDS011;4983;42.112;24.738;2023-02-08T02:46:37;19.73;;;13.30;;
9888;SDS011;4983;42.112;24.738;2023-02-08T02:49:07;18.23;;;12.93;;
9888;SDS011;4983;42.112;24.738;2023-02-08T02:51:39;18.17;;;13.17;;
9888;SDS011;4983;42.112;24.738;2023-02-08T02:54:07;19.23;;;13.10;;
9888;SDS011;4983;42.112;24.738;2023-02-08T02:56:37;19.07;;;12.70;;
9888;SDS011;4983;42.112;24.738;2023-02-08T02:59:05;18.47;;;12.50;;
9888;SDS011;4983;42.112;24.738;2023-02-08T03:01:32;18.53;;;13.13;;
9888;SDS011;4983;42.112;24.738;2023-02-08T03:03:59;16.80;;;12.50;;
9888;SDS011;4983;42.112;24.738;2023-02-08T03:06:35;16.10;;;11.93;;
9888;SDS011;4983;42.112;24.738;2023-02-08T03:09:30;18.47;;;13.77;;
9888;SDS011;4983;42.112;24.738;2023-02-08T03:12:03;19.90;;;14.17;;
9888;SDS011;4983;42.112;24.738;2023-02-08T03:14:34;19.77;;;13.47;;
9888;SDS011;4983;42.112;24.738;2023-02-08T03:17:18;19.37;;;13.77;;
9888;SDS011;4983;42.112;24.738;2023-02-08T03:19:49;19.80;;;13.63;;
9888;SDS011;4983;42.112;24.738;2023-02-08T03:22:20;17.33;;;13.37;;
9888;SDS011;4983;42.112;24.738;2023-02-08T03:24:50;29.50;;;14.87;;
9888;SDS011;4983;42.112;24.738;2023-02-08T03:27:21;20.40;;;15.17;;
9888;SDS011;4983;42.112;24.738;2023-02-08T03:29:51;24.70;;;13.93;;
9888;SDS011;4983;42.112;24.738;2023-02-08T03:32:20;19.20;;;13.17;;
9888;SDS011;4983;42.112;24.738;2023-02-08T03:34:47;20.23;;;12.83;;
9888;SDS011;4983;42.112;24.738;2023-02-08T03:37:18;18.70;;;12.83;;
9888;SDS011;4983;42.112;24.738;2023-02-08T03:39:47;21.63;;;12.73;;
9888;SDS011;4983;42.112;24.738;2023-02-08T03:42:15;20.03;;;12.73;;
9888;SDS011;4983;42.112;24.738;2023-02-08T03:44:43;17.20;;;13.03;;
9888;SDS011;4983;42.112;24.738;2023-02-08T03:47:12;21.07;;;13.00;;
9888;SDS011;4983;42.112;24.738;2023-02-08T03:49:42;17.07;;;11.93;;
9888;SDS011;4983;42.112;24.738;2023-02-08T03:52:10;17.97;;;13.33;;
9888;SDS011;4983;42.112;24.738;2023-02-08T03:54:38;20.33;;;13.67;;
9888;SDS011;4983;42.112;24.738;2023-02-08T03:57:07;19.33;;;13.93;;
9888;SDS011;4983;42.112;24.738;2023-02-08T03:59:36;31.17;;;14.30;;
9888;SDS011;4983;42.112;24.738;2023-02-08T04:02:04;19.10;;;12.63;;
9888;SDS011;4983;42.112;24.738;2023-02-08T04:04:33;18.10;;;12.17;;
9888;SDS011;4983;42.112;24.738;2023-02-08T04:07:01;16.17;;;11.43;;
9888;SDS011;4983;42.112;24.738;2023-02-08T04:09:28;19.73;;;13.20;;
9888;SDS011;4983;42.112;24.738;2023-02-08T04:11:54;20.60;;;12.73;;
9888;SDS011;4983;42.112;24.738;2023-02-08T04:14:23;17.00;;;11.53;;
9888;SDS011;4983;42.112;24.738;2023-02-08T04:16:50;21.47;;;12.43;;
9888;SDS011;4983;42.112;24.738;2023-02-08T04:19:17;17.87;;;12.20;;
9888;SDS011;4983;42.112;24.738;2023-02-08T04:21:45;17.67;;;12.00;;
9888;SDS011;4983;42.112;24.738;2023-02-08T04:24:13;15.50;;;11.93;;
9888;SDS011;4983;42.112;24.738;2023-02-08T04:26:40;17.53;;;13.03;;
9888;SDS011;4983;42.112;24.738;2023-02-08T04:29:07;20.03;;;12.73;;
9888;SDS011;4983;42.112;24.738;2023-02-08T04:31:35;20.87;;;14.97;;
9888;SDS011;4983;42.112;24.738;2023-02-08T04:34:02;19.97;;;12.80;;
9888;SDS011;4983;42.112;24.738;2023-02-08T04:36:29;22.70;;;12.80;;
9888;SDS011;4983;42.112;24.738;2023-02-08T04:38:55;15.63;;;12.13;;
9888;SDS011;4983;42.112;24.738;2023-02-08T04:41:22;21.87;;;12.97;;
9888;SDS011;4983;42.112;24.738;2023-02-08T04:43:49;20.40;;;11.70;;
9888;SDS011;4983;42.112;24.738;2023-02-08T04:46:15;19.10;;;11.97;;
9888;SDS011;4983;42.112;24.738;2023-02-08T04:48:43;27.93;;;12.47;;
9888;SDS011;4983;42.112;24.738;2023-02-08T04:51:10;19.73;;;11.87;;
9888;SDS011;4983;42.112;24.738;2023-02-08T04:53:38;19.80;;;14.50;;
9888;SDS011;4983;42.112;24.738;2023-02-08T04:56:04;19.40;;;12.87;;
9888;SDS011;4983;42.112;24.738;2023-02-08T04:58:31;22.57;;;12.23;;
9888;SDS011;4983;42.112;24.738;2023-02-08T05:00:58;24.17;;;14.23;;
9888;SDS011;4983;42.112;24.738;2023-02-08T05:03:25;22.57;;;13.63;;
9888;SDS011;4983;42.112;24.738;2023-02-08T05:05:57;18.60;;;12.77;;
9888;SDS011;4983;42.112;24.738;2023-02-08T05:08:24;18.27;;;12.50;;
9888;SDS011;4983;42.112;24.738;2023-02-08T05:10:51;20.40;;;12.50;;
9888;SDS011;4983;42.112;24.738;2023-02-08T05:13:20;19.63;;;11.30;;
9888;SDS011;4983;42.112;24.738;2023-02-08T05:15:47;48.17;;;13.70;;
9888;SDS011;4983;42.112;24.738;2023-02-08T05:18:15;19.03;;;12.47;;
9888;SDS011;4983;42.112;24.738;2023-02-08T05:20:42;18.57;;;12.53;;
9888;SDS011;4983;42.112;24.738;2023-02-08T05:23:10;21.67;;;12.53;;
9888;SDS011;4983;42.112;24.738;2023-02-08T05:25:37;18.33;;;13.10;;
9888;SDS011;4983;42.112;24.738;2023-02-08T05:28:04;19.00;;;12.37;;
9888;SDS011;4983;42.112;24.738;2023-02-08T05:30:31;19.63;;;12.77;;
9888;SDS011;4983;42.112;24.738;2023-02-08T05:32:57;19.40;;;12.67;;
9888;SDS011;4983;42.112;24.738;2023-02-08T05:35:24;24.20;;;12.60;;
9888;SDS011;4983;42.112;24.738;2023-02-08T05:37:52;31.17;;;13.30;;
9888;SDS011;4983;42.112;24.738;2023-02-08T05:40:22;23.23;;;12.40;;
9888;SDS011;4983;42.112;24.738;2023-02-08T05:42:49;28.13;;;14.77;;
9888;SDS011;4983;42.112;24.738;2023-02-08T05:45:17;41.73;;;16.10;;
9888;SDS011;4983;42.112;24.738;2023-02-08T05:47:45;30.83;;;14.03;;
9888;SDS011;4983;42.112;24.738;2023-02-08T05:50:13;30.10;;;17.13;;
9888;SDS011;4983;42.112;24.738;2023-02-08T05:52:40;32.00;;;16.43;;
9888;SDS011;4983;42.112;24.738;2023-02-08T05:55:07;33.83;;;19.00;;
9888;SDS011;4983;42.112;24.738;2023-02-08T05:57:35;30.10;;;15.47;;
9888;SDS011;4983;42.112;24.738;2023-02-08T06:00:03;21.03;;;13.57;;
9888;SDS011;4983;42.112;24.738;2023-02-08T06:02:30;21.20;;;14.77;;
9888;SDS011;4983;42.112;24.738;2023-02-08T06:04:57;21.57;;;14.20;;
9888;SDS011;4983;42.112;24.738;2023-02-08T06:07:24;23.27;;;14.03;;
9888;SDS011;4983;42.112;24.738;2023-02-08T06:09:51;23.07;;;15.93;;
9888;SDS011;4983;42.112;24.738;2023-02-08T06:12:18;23.73;;;15.17;;
9888;SDS011;4983;42.112;24.738;2023-02-08T06:14:46;23.33;;;16.17;;
9888;SDS011;4983;42.112;24.738;2023-02-08T06:17:12;26.40;;;17.60;;
9888;SDS011;4983;42.112;24.738;2023-02-08T06:19:40;31.90;;;19.50;;
9888;SDS011;4983;42.112;24.738;2023-02-08T06:22:07;43.33;;;23.87;;
9888;SDS011;4983;42.112;24.738;2023-02-08T06:24:33;30.33;;;19.87;;
9888;SDS011;4983;42.112;24.738;2023-02-08T06:27:00;72.90;;;24.87;;
9888;SDS011;4983;42.112;24.738;2023-02-08T06:29:26;41.97;;;21.67;;
9888;SDS011;4983;42.112;24.738;2023-02-08T06:31:55;26.27;;;16.70;;
9888;SDS011;4983;42.112;24.738;2023-02-08T06:34:21;33.03;;;17.47;;
9888;SDS011;4983;42.112;24.738;2023-02-08T06:36:48;32.13;;;14.77;;
9888;SDS011;4983;42.112;24.738;2023-02-08T06:39:15;27.00;;;14.87;;
9888;SDS011;4983;42.112;24.738;2023-02-08T06:41:41;31.87;;;15.27;;
9888;SDS011;4983;42.112;24.738;2023-02-08T06:44:09;25.23;;;14.43;;
9888;SDS011;4983;42.112;24.738;2023-02-08T06:46:36;23.90;;;13.27;;
9888;SDS011;4983;42.112;24.738;2023-02-08T06:49:04;50.53;;;18.30;;
9888;SDS011;4983;42.112;24.738;2023-02-08T06:51:31;32.10;;;16.43;;
9888;SDS011;4983;42.112;24.738;2023-02-08T06:53:57;22.47;;;15.47;;
9888;SDS011;4983;42.112;24.738;2023-02-08T06:56:24;20.80;;;12.73;;
9888;SDS011;4983;42.112;24.738;2023-02-08T06:58:51;23.47;;;12.90;;
9888;SDS011;4983;42.112;24.738;2023-02-08T07:01:17;60.57;;;29.43;;
9888;SDS011;4983;42.112;24.738;2023-02-08T07:03:44;37.53;;;17.10;;
9888;SDS011;4983;42.112;24.738;2023-02-08T07:06:12;34.03;;;18.17;;
9888;SDS011;4983;42.112;24.738;2023-02-08T07:08:40;32.57;;;18.10;;
9888;SDS011;4983;42.112;24.738;2023-02-08T07:11:07;52.47;;;17.50;;
9888;SDS011;4983;42.112;24.738;2023-02-08T07:13:34;25.60;;;17.65;;
9888;SDS011;4983;42.112;24.738;2023-02-08T07:16:01;21.57;;;15.80;;
9888;SDS011;4983;42.112;24.738;2023-02-08T07:18:28;25.70;;;14.37;;
9888;SDS011;4983;42.112;24.738;2023-02-08T07:20:55;26.93;;;14.77;;
9888;SDS011;4983;42.112;24.738;2023-02-08T07:23:25;20.97;;;13.87;;
9888;SDS011;4983;42.112;24.738;2023-02-08T07:25:55;39.10;;;15.07;;
9888;SDS011;4983;42.112;24.738;2023-02-08T07:28:24;18.83;;;12.97;;
9888;SDS011;4983;42.112;24.738;2023-02-08T07:30:50;48.53;;;17.00;;
9888;SDS011;4983;42.112;24.738;2023-02-08T07:33:17;31.37;;;15.03;;
9888;SDS011;4983;42.112;24.738;2023-02-08T07:35:44;27.13;;;15.30;;
9888;SDS011;4983;42.112;24.738;2023-02-08T07:38:11;21.10;;;13.53;;
9888;SDS011;4983;42.112;24.738;2023-02-08T07:40:39;21.07;;;13.77;;
9888;SDS011;4983;42.112;24.738;2023-02-08T07:43:06;18.93;;;13.43;;
9888;SDS011;4983;42.112;24.738;2023-02-08T07:45:33;34.13;;;15.77;;
9888;SDS011;4983;42.112;24.738;2023-02-08T07:47:59;20.07;;;13.33;;
9888;SDS011;4983;42.112;24.738;2023-02-08T07:50:27;16.87;;;12.33;;
9888;SDS011;4983;42.112;24.738;2023-02-08T07:52:54;24.17;;;14.10;;
9888;SDS011;4983;42.112;24.738;2023-02-08T07:55:21;18.77;;;12.87;;
9888;SDS011;4983;42.112;24.738;2023-02-08T07:57:49;24.00;;;14.10;;
9888;SDS011;4983;42.112;24.738;2023-02-08T08:00:16;24.20;;;14.17;;
9888;SDS011;4983;42.112;24.738;2023-02-08T08:02:44;35.33;;;14.17;;
9888;SDS011;4983;42.112;24.738;2023-02-08T08:05:11;27.63;;;13.80;;
9888;SDS011;4983;42.112;24.738;2023-02-08T08:07:37;59.47;;;18.60;;
9888;SDS011;4983;42.112;24.738;2023-02-08T08:10:05;42.87;;;16.50;;
9888;SDS011;4983;42.112;24.738;2023-02-08T08:12:31;24.07;;;15.47;;
9888;SDS011;4983;42.112;24.738;2023-02-08T08:14:59;28.63;;;14.93;;
9888;SDS011;4983;42.112;24.738;2023-02-08T08:17:26;21.67;;;15.47;;
9888;SDS011;4983;42.112;24.738;2023-02-08T08:19:53;20.20;;;14.70;;
9888;SDS011;4983;42.112;24.738;2023-02-08T08:22:20;19.53;;;13.40;;
9888;SDS011;4983;42.112;24.738;2023-02-08T08:24:46;24.90;;;13.30;;
9888;SDS011;4983;42.112;24.738;2023-02-08T08:27:13;20.20;;;13.60;;
9888;SDS011;4983;42.112;24.738;2023-02-08T08:29:40;30.90;;;13.83;;
9888;SDS011;4983;42.112;24.738;2023-02-08T08:32:08;17.60;;;12.93;;
9888;SDS011;4983;42.112;24.738;2023-02-08T08:34:34;17.93;;;13.50;;
9888;SDS011;4983;42.112;24.738;2023-02-08T08:37:01;17.07;;;12.43;;
9888;SDS011;4983;42.112;24.738;2023-02-08T08:39:28;31.40;;;13.67;;
9888;SDS011;4983;42.112;24.738;2023-02-08T08:41:56;29.17;;;13.80;;
9888;SDS011;4983;42.112;24.738;2023-02-08T08:44:23;21.83;;;12.33;;
9888;SDS011;4983;42.112;24.738;2023-02-08T08:46:53;18.10;;;12.23;;
9888;SDS011;4983;42.112;24.738;2023-02-08T08:49:21;18.40;;;12.50;;
9888;SDS011;4983;42.112;24.738;2023-02-08T08:51:48;19.10;;;12.37;;
9888;SDS011;4983;42.112;24.738;2023-02-08T08:54:15;21.30;;;13.10;;
9888;SDS011;4983;42.112;24.738;2023-02-08T08:56:41;37.70;;;15.20;;
9888;SDS011;4983;42.112;24.738;2023-02-08T08:59:08;20.13;;;13.00;;
9888;SDS011;4983;42.112;24.738;2023-02-08T09:01:36;44.37;;;18.07;;
9888;SDS011;4983;42.112;24.738;2023-02-08T09:04:06;15.80;;;12.30;;
9888;SDS011;4983;42.112;24.738;2023-02-08T09:06:35;25.23;;;16.97;;
9888;SDS011;4983;42.112;24.738;2023-02-08T09:09:02;53.93;;;16.77;;
9888;SDS011;4983;42.112;24.738;2023-02-08T09:11:28;19.80;;;12.50;;
9888;SDS011;4983;42.112;24.738;2023-02-08T09:13:57;21.40;;;12.67;;
9888;SDS011;4983;42.112;24.738;2023-02-08T09:16:24;16.10;;;12.67;;
9888;SDS011;4983;42.112;24.738;2023-02-08T09:18:50;17.50;;;11.67;;
9888;SDS011;4983;42.112;24.738;2023-02-08T09:21:18;17.63;;;11.60;;
9888;SDS011;4983;42.112;24.738;2023-02-08T09:23:47;19.43;;;11.60;;
9888;SDS011;4983;42.112;24.738;2023-02-08T09:26:15;17.00;;;11.60;;
9888;SDS011;4983;42.112;24.738;2023-02-08T09:28:42;15.33;;;11.33;;
9888;SDS011;4983;42.112;24.738;2023-02-08T09:31:11;17.17;;;11.43;;
9888;SDS011;4983;42.112;24.738;2023-02-08T09:33:38;13.67;;;10.40;;
9888;SDS011;4983;42.112;24.738;2023-02-08T09:36:05;13.40;;;10.27;;
9888;SDS011;4983;42.112;24.738;2023-02-08T09:38:33;35.42;;;14.43;;
9888;SDS011;4983;42.112;24.738;2023-02-08T09:41:04;13.07;;;10.50;;
9888;SDS011;4983;42.112;24.738;2023-02-08T09:43:36;15.13;;;10.80;;
9888;SDS011;4983;42.112;24.738;2023-02-08T09:46:10;12.33;;;10.07;;
9888;SDS011;4983;42.112;24.738;2023-02-08T09:48:37;17.10;;;10.37;;
9888;SDS011;4983;42.112;24.738;2023-02-08T09:51:06;12.90;;;10.10;;
9888;SDS011;4983;42.112;24.738;2023-02-08T09:53:34;17.83;;;10.43;;
9888;SDS011;4983;42.112;24.738;2023-02-08T09:56:04;17.97;;;9.70;;
9888;SDS011;4983;42.112;24.738;2023-02-08T09:58:33;13.63;;;9.87;;
9888;SDS011;4983;42.112;24.738;2023-02-08T10:01:01;12.13;;;9.23;;
9888;SDS011;4983;42.112;24.738;2023-02-08T10:03:30;14.30;;;10.03;;
9888;SDS011;4983;42.112;24.738;2023-02-08T10:05:58;12.10;;;9.50;;
9888;SDS011;4983;42.112;24.738;2023-02-08T10:08:25;11.30;;;8.80;;
9888;SDS011;4983;42.112;24.738;2023-02-08T10:10:53;11.97;;;8.90;;
9888;SDS011;4983;42.112;24.738;2023-02-08T10:13:26;11.87;;;8.50;;
9888;SDS011;4983;42.112;24.738;2023-02-08T10:15:55;10.43;;;8.17;;
9888;SDS011;4983;42.112;24.738;2023-02-08T10:18:28;16.03;;;8.70;;
9888;SDS011;4983;42.112;24.738;2023-02-08T10:21:02;26.83;;;9.67;;
9888;SDS011;4983;42.112;24.738;2023-02-08T10:23:38;10.67;;;8.90;;
9888;SDS011;4983;42.112;24.738;2023-02-08T10:26:11;12.77;;;8.93;;
9888;SDS011;4983;42.112;24.738;2023-02-08T10:28:53;22.30;;;9.43;;
9888;SDS011;4983;42.112;24.738;2023-02-08T10:31:24;17.13;;;10.93;;
9888;SDS011;4983;42.112;24.738;2023-02-08T10:33:58;12.37;;;10.00;;
9888;SDS011;4983;42.112;24.738;2023-02-08T10:36:27;10.90;;;9.27;;
9888;SDS011;4983;42.112;24.738;2023-02-08T10:38:55;11.77;;;9.03;;
9888;SDS011;4983;42.112;24.738;2023-02-08T10:41:23;15.03;;;10.57;;
9888;SDS011;4983;42.112;24.738;2023-02-08T10:43:53;24.03;;;10.60;;
9888;SDS011;4983;42.112;24.738;2023-02-08T10:46:25;15.07;;;8.70;;
9888;SDS011;4983;42.112;24.738;2023-02-08T10:48:59;14.80;;;9.50;;
9888;SDS011;4983;42.112;24.738;2023-02-08T10:51:28;36.03;;;13.47;;
9888;SDS011;4983;42.112;24.738;2023-02-08T10:53:56;13.70;;;9.87;;
9888;SDS011;4983;42.112;24.738;2023-02-08T10:56:33;152.53;;;22.07;;
9888;SDS011;4983;42.112;24.738;2023-02-08T10:59:04;11.00;;;9.50;;
9888;SDS011;4983;42.112;24.738;2023-02-08T11:01:31;11.73;;;10.00;;
9888;SDS011;4983;42.112;24.738;2023-02-08T11:04:01;13.10;;;9.77;;
9888;SDS011;4983;42.112;24.738;2023-02-08T11:06:28;12.37;;;10.27;;
9888;SDS011;4983;42.112;24.738;2023-02-08T11:08:55;16.27;;;9.73;;
9888;SDS011;4983;42.112;24.738;2023-02-08T11:11:23;16.00;;;9.77;;
9888;SDS011;4983;42.112;24.738;2023-02-08T11:13:51;11.20;;;9.20;;
9888;SDS011;4983;42.112;24.738;2023-02-08T11:16:21;13.23;;;9.43;;
9888;SDS011;4983;42.112;24.738;2023-02-08T11:18:48;22.77;;;11.23;;
9888;SDS011;4983;42.112;24.738;2023-02-08T11:21:20;53.13;;;13.40;;
9888;SDS011;4983;42.112;24.738;2023-02-08T11:23:49;22.13;;;10.40;;
9888;SDS011;4983;42.112;24.738;2023-02-08T11:26:17;12.07;;;9.90;;
9888;SDS011;4983;42.112;24.738;2023-02-08T11:28:54;36.30;;;10.87;;
9888;SDS011;4983;42.112;24.738;2023-02-08T11:31:25;19.53;;;8.43;;
9888;SDS011;4983;42.112;24.738;2023-02-08T11:33:58;14.10;;;8.87;;
9888;SDS011;4983;42.112;24.738;2023-02-08T11:36:26;18.60;;;9.13;;
9888;SDS011;4983;42.112;24.738;2023-02-08T11:38:53;15.27;;;8.37;;
9888;SDS011;4983;42.112;24.738;2023-02-08T11:41:21;35.20;;;10.33;;
9888;SDS011;4983;42.112;24.738;2023-02-08T11:43:55;73.00;;;14.53;;
9888;SDS011;4983;42.112;24.738;2023-02-08T11:46:25;14.23;;;9.97;;
9888;SDS011;4983;42.112;24.738;2023-02-08T11:48:53;11.60;;;9.40;;
9888;SDS011;4983;42.112;24.738;2023-02-08T11:51:24;10.70;;;8.87;;
9888;SDS011;4983;42.112;24.738;2023-02-08T11:53:52;24.00;;;10.73;;
9888;SDS011;4983;42.112;24.738;2023-02-08T11:56:19;22.13;;;9.90;;
9888;SDS011;4983;42.112;24.738;2023-02-08T11:58:56;12.47;;;9.57;;
9888;SDS011;4983;42.112;24.738;2023-02-08T12:01:26;14.03;;;9.10;;
9888;SDS011;4983;42.112;24.738;2023-02-08T12:03:54;10.77;;;9.43;;
9888;SDS011;4983;42.112;24.738;2023-02-08T12:06:25;11.17;;;9.50;;
9888;SDS011;4983;42.112;24.738;2023-02-08T12:08:57;13.63;;;9.13;;
9888;SDS011;4983;42.112;24.738;2023-02-08T12:11:28;29.63;;;12.17;;
9888;SDS011;4983;42.112;24.738;2023-02-08T12:14:19;18.10;;;9.93;;
9888;SDS011;4983;42.112;24.738;2023-02-08T12:16:57;14.80;;;9.20;;
9888;SDS011;4983;42.112;24.738;2023-02-08T12:19:35;12.60;;;8.87;;
9888;SDS011;4983;42.112;24.738;2023-02-08T12:22:05;13.23;;;8.80;;
9888;SDS011;4983;42.112;24.738;2023-02-08T12:24:35;17.10;;;9.30;;
9888;SDS011;4983;42.112;24.738;2023-02-08T12:27:09;16.70;;;11.00;;
9888;SDS011;4983;42.112;24.738;2023-02-08T12:29:42;12.40;;;7.97;;
9888;SDS011;4983;42.112;24.738;2023-02-08T12:32:16;11.10;;;8.97;;
9888;SDS011;4983;42.112;24.738;2023-02-08T12:34:49;26.03;;;9.20;;
9888;SDS011;4983;42.112;24.738;2023-02-08T12:37:21;11.33;;;9.00;;
9888;SDS011;4983;42.112;24.738;2023-02-08T12:40:15;12.90;;;8.80;;
9888;SDS011;4983;42.112;24.738;2023-02-08T12:43:06;12.37;;;8.63;;
9888;SDS011;4983;42.112;24.738;2023-02-08T12:45:44;10.90;;;8.87;;
9888;SDS011;4983;42.112;24.738;2023-02-08T12:48:21;14.57;;;11.03;;
9888;SDS011;4983;42.112;24.738;2023-02-08T12:50:52;11.80;;;10.13;;
9888;SDS011;4983;42.112;24.738;2023-02-08T12:53:22;15.40;;;9.17;;
9888;SDS011;4983;42.112;24.738;2023-02-08T12:55:59;21.40;;;9.77;;
9888;SDS011;4983;42.112;24.738;2023-02-08T12:58:28;15.87;;;9.90;;
9888;SDS011;4983;42.112;24.738;2023-02-08T13:00:55;17.27;;;10.27;;
9888;SDS011;4983;42.112;24.738;2023-02-08T13:03:28;15.57;;;9.23;;
9888;SDS011;4983;42.112;24.738;2023-02-08T13:05:58;32.27;;;9.73;;
9888;SDS011;4983;42.112;24.738;2023-02-08T13:08:27;10.67;;;8.73;;
9888;SDS011;4983;42.112;24.738;2023-02-08T13:10:56;15.00;;;8.93;;
9888;SDS011;4983;42.112;24.738;2023-02-08T13:13:25;10.20;;;8.57;;
9888;SDS011;4983;42.112;24.738;2023-02-08T13:15:53;33.00;;;9.47;;
9888;SDS011;4983;42.112;24.738;2023-02-08T13:18:22;32.23;;;10.40;;
9888;SDS011;4983;42.112;24.738;2023-02-08T13:20:51;10.63;;;8.97;;
9888;SDS011;4983;42.112;24.738;2023-02-08T13:23:21;10.63;;;8.23;;
9888;SDS011;4983;42.112;24.738;2023-02-08T13:25:49;10.67;;;8.73;;
9888;SDS011;4983;42.112;24.738;2023-02-08T13:28:19;14.57;;;8.77;;
9888;SDS011;4983;42.112;24.738;2023-02-08T13:30:51;11.43;;;8.60;;
9888;SDS011;4983;42.112;24.738;2023-02-08T13:33:23;22.37;;;10.67;;
9888;SDS011;4983;42.112;24.738;2023-02-08T13:35:53;27.83;;;10.57;;
9888;SDS011;4983;42.112;24.738;2023-02-08T13:38:23;10.10;;;8.43;;
9888;SDS011;4983;42.112;24.738;2023-02-08T13:41:00;14.87;;;9.23;;
9888;SDS011;4983;42.112;24.738;2023-02-08T13:43:28;20.20;;;9.60;;
9888;SDS011;4983;42.112;24.738;2023-02-08T13:45:57;12.57;;;8.47;;
9888;SDS011;4983;42.112;24.738;2023-02-08T13:48:25;12.23;;;8.83;;
9888;SDS011;4983;42.112;24.738;2023-02-08T13:50:54;10.40;;;8.80;;
9888;SDS011;4983;42.112;24.738;2023-02-08T13:56:04;16.37;;;9.93;;
9888;SDS011;4983;42.112;24.738;2023-02-08T13:58:38;10.37;;;8.13;;
9888;SDS011;4983;42.112;24.738;2023-02-08T14:01:25;10.20;;;8.63;;
9888;SDS011;4983;42.112;24.738;2023-02-08T14:06:47;46.33;;;10.57;;
9888;SDS011;4983;42.112;24.738;2023-02-08T14:09:18;13.20;;;8.43;;
9888;SDS011;4983;42.112;24.738;2023-02-08T14:11:47;13.67;;;8.53;;
9888;SDS011;4983;42.112;24.738;2023-02-08T14:14:16;9.53;;;7.93;;
9888;SDS011;4983;42.112;24.738;2023-02-08T14:16:45;12.77;;;8.27;;
9888;SDS011;4983;42.112;24.738;2023-02-08T14:19:20;54.10;;;26.13;;
9888;SDS011;4983;42.112;24.738;2023-02-08T14:21:57;19.53;;;9.87;;
9888;SDS011;4983;42.112;24.738;2023-02-08T14:24:26;28.30;;;16.90;;
9888;SDS011;4983;42.112;24.738;2023-02-08T14:27:07;9.83;;;8.60;;
9888;SDS011;4983;42.112;24.738;2023-02-08T14:29:36;26.70;;;9.80;;
9888;SDS011;4983;42.112;24.738;2023-02-08T14:32:03;11.50;;;8.67;;
9888;SDS011;4983;42.112;24.738;2023-02-08T14:34:30;11.43;;;8.40;;
9888;SDS011;4983;42.112;24.738;2023-02-08T14:37:01;12.60;;;8.90;;
9888;SDS011;4983;42.112;24.738;2023-02-08T14:39:29;10.93;;;9.00;;
9888;SDS011;4983;42.112;24.738;2023-02-08T14:41:58;12.50;;;9.97;;
9888;SDS011;4983;42.112;24.738;2023-02-08T14:50:10;71.00;;;14.63;;
9888;SDS011;4983;42.112;24.738;2023-02-08T14:52:40;13.20;;;8.67;;
9888;SDS011;4983;42.112;24.738;2023-02-08T14:55:12;16.93;;;9.03;;
9888;SDS011;4983;42.112;24.738;2023-02-08T14:57:40;22.43;;;9.60;;
9888;SDS011;4983;42.112;24.738;2023-02-08T15:00:14;43.40;;;10.70;;
9888;SDS011;4983;42.112;24.738;2023-02-08T15:02:43;16.73;;;9.40;;
9888;SDS011;4983;42.112;24.738;2023-02-08T15:05:17;28.20;;;11.30;;
9888;SDS011;4983;42.112;24.738;2023-02-08T15:07:47;73.47;;;21.37;;